createdAt,value
2023-01-13T00:01:27.880Z,99439.89
2023-01-13T00:03:55.951Z,99441.08
2023-01-13T00:06:29.476Z,99437.23
2023-01-13T00:08:58.147Z,99435.58
2023-01-13T00:11:26.548Z,99429.81
2023-01-13T00:13:54.484Z,99435.11
2023-01-13T00:16:21.982Z,99432.23
2023-01-13T00:18:51.383Z,99428.20
2023-01-13T00:21:21.771Z,99431.36
2023-01-13T00:23:49.678Z,99427.77
2023-01-13T00:26:20.271Z,99425.33
2023-01-13T00:28:48.138Z,99426.24
2023-01-13T00:31:17.844Z,99417.77
2023-01-13T00:33:45.511Z,99419.25
2023-01-13T00:36:14.788Z,99413.28
2023-01-13T00:38:43.343Z,99412.74
2023-01-13T00:41:13.467Z,99413.03
2023-01-13T00:43:41.566Z,99412.63
2023-01-13T00:46:11.213Z,99419.42
2023-01-13T00:48:38.760Z,99419.88
2023-01-13T00:51:07.431Z,99412.80
2023-01-13T00:53:37.723Z,99416.52
2023-01-13T00:56:08.254Z,99412.54
2023-01-13T00:58:36.211Z,99406.95
2023-01-13T01:01:06.965Z,99409.58
2023-01-13T01:03:35.432Z,99407.98
2023-01-13T01:06:14.283Z,99411.95
2023-01-13T01:08:42.287Z,99404.52
2023-01-13T01:11:13.740Z,99402.92
2023-01-13T01:13:41.730Z,99399.33
2023-01-13T01:16:11.805Z,99395.35
2023-01-13T01:18:41.380Z,99396.35
2023-01-13T01:21:10.038Z,99396.65
2023-01-13T01:23:38.170Z,99389.34
2023-01-13T01:26:08.349Z,99388.68
2023-01-13T01:28:35.665Z,99385.27
2023-01-13T01:31:08.609Z,99383.90
2023-01-13T01:33:35.810Z,99377.65
2023-01-13T01:36:04.214Z,99377.45
2023-01-13T01:38:31.464Z,99373.73
2023-01-13T01:40:58.803Z,99369.84
2023-01-13T01:44:08.613Z,99367.06
2023-01-13T01:46:43.734Z,99364.35
2023-01-13T01:49:33.836Z,99356.19
2023-01-13T01:52:12.390Z,99348.74
2023-01-13T01:54:48.185Z,99347.61
2023-01-13T01:57:27.344Z,99346.55
2023-01-13T01:59:54.935Z,99347.22
2023-01-13T02:02:22.753Z,99343.61
2023-01-13T02:04:53.562Z,99341.21
2023-01-13T02:07:28.041Z,99337.78
2023-01-13T02:09:57.925Z,99336.09
2023-01-13T02:12:30.344Z,99337.17
2023-01-13T02:15:07.893Z,99332.84
2023-01-13T02:18:02.893Z,99330.82
2023-01-13T02:20:36.211Z,99324.05
2023-01-13T02:23:57.844Z,99328.70
2023-01-13T02:26:53.390Z,99319.89
2023-01-13T02:29:58.403Z,99319.77
2023-01-13T02:32:44.339Z,99315.92
2023-01-13T02:35:35.480Z,99314.31
2023-01-13T02:38:04.034Z,99315.16
2023-01-13T02:40:43.107Z,99310.54
2023-01-13T02:43:32.178Z,99305.48
2023-01-13T02:46:06.919Z,99301.20
2023-01-13T02:48:36.412Z,99301.94
2023-01-13T02:51:12.422Z,99293.39
2023-01-13T02:53:48.637Z,99291.20
2023-01-13T02:56:17.515Z,99292.33
2023-01-13T02:58:47.340Z,99285.73
2023-01-13T03:01:14.537Z,99286.29
2023-01-13T03:03:42.105Z,99285.02
2023-01-13T03:06:29.955Z,99284.46
2023-01-13T03:09:20.506Z,99282.04
2023-01-13T03:12:13.792Z,99282.97
2023-01-13T03:14:57.815Z,99280.33
2023-01-13T03:17:36.945Z,99274.94
2023-01-13T03:20:17.451Z,99275.05
2023-01-13T03:23:17.665Z,99270.41
2023-01-13T03:25:56.870Z,99273.52
2023-01-13T03:28:32.568Z,99270.32
2023-01-13T03:31:09.871Z,99270.89
2023-01-13T03:33:45.566Z,99266.35
2023-01-13T03:36:14.458Z,99271.14
2023-01-13T03:38:45.482Z,99269.19
2023-01-13T03:41:18.274Z,99270.27
2023-01-13T03:44:12.946Z,99270.73
2023-01-13T03:46:49.517Z,99267.82
2023-01-13T03:49:22.539Z,99267.80
2023-01-13T03:51:57.207Z,99264.88
2023-01-13T03:54:28.552Z,99261.33
2023-01-13T03:57:00.469Z,99266.73
2023-01-13T03:59:33.675Z,99261.72
2023-01-13T04:02:16.868Z,99264.95
2023-01-13T04:05:03.218Z,99265.21
2023-01-13T04:07:53.127Z,99265.69
2023-01-13T04:10:27.749Z,99268.98
2023-01-13T04:13:03.307Z,99263.61
2023-01-13T04:15:36.552Z,99268.64
2023-01-13T04:18:13.702Z,99264.36
2023-01-13T04:20:42.483Z,99262.36
2023-01-13T04:23:10.715Z,99260.13
2023-01-13T04:25:37.962Z,99263.84
2023-01-13T04:28:05.323Z,99262.61
2023-01-13T04:30:32.600Z,99258.22
2023-01-13T04:32:59.831Z,99258.84
2023-01-13T04:35:27.081Z,99262.15
2023-01-13T04:37:54.212Z,99257.00
2023-01-13T04:40:21.567Z,99258.52
2023-01-13T04:42:48.661Z,99258.73
2023-01-13T04:45:15.897Z,99256.70
2023-01-13T04:47:43.140Z,99258.24
2023-01-13T04:50:11.224Z,99256.36
2023-01-13T04:52:39.127Z,99252.96
2023-01-13T04:55:07.640Z,99256.23
2023-01-13T04:57:35.213Z,99254.59
2023-01-13T05:00:02.365Z,99253.73
2023-01-13T05:02:29.580Z,99253.05
2023-01-13T05:04:56.918Z,99257.76
2023-01-13T05:07:24.142Z,99258.70
2023-01-13T05:09:51.355Z,99252.16
2023-01-13T05:12:37.157Z,99257.34
2023-01-13T05:15:23.547Z,99252.59
2023-01-13T05:17:51.443Z,99252.27
2023-01-13T05:20:18.647Z,99256.74
2023-01-13T05:23:04.615Z,99252.09
2023-01-13T05:25:31.822Z,99251.75
2023-01-13T05:28:00.149Z,99249.16
2023-01-13T05:30:31.164Z,99249.96
2023-01-13T05:32:58.515Z,99252.58
2023-01-13T05:35:26.004Z,99253.27
2023-01-13T05:37:55.244Z,99254.08
2023-01-13T05:40:41.604Z,99261.31
2023-01-13T05:43:21.056Z,99263.03
2023-01-13T05:45:51.138Z,99261.71
2023-01-13T05:48:20.588Z,99263.59
2023-01-13T05:50:49.277Z,99263.16
2023-01-13T05:53:17.917Z,99255.86
2023-01-13T05:55:45.443Z,99258.16
2023-01-13T05:58:15.061Z,99261.45
2023-01-13T06:00:42.399Z,99263.10
2023-01-13T06:03:10.591Z,99267.29
2023-01-13T06:05:38.271Z,99264.88
2023-01-13T06:08:07.318Z,99266.40
2023-01-13T06:10:35.364Z,99266.34
2023-01-13T06:13:03.100Z,99269.80
2023-01-13T06:15:30.298Z,99270.77
2023-01-13T06:17:57.378Z,99268.84
2023-01-13T06:20:25.074Z,99267.12
2023-01-13T06:22:54.445Z,99268.25
2023-01-13T06:25:52.418Z,99267.10
2023-01-13T06:28:19.487Z,99266.23
2023-01-13T06:30:54.245Z,99271.18
2023-01-13T06:33:30.336Z,99275.04
2023-01-13T06:36:02.299Z,99274.02
2023-01-13T06:38:34.462Z,99273.56
2023-01-13T06:41:01.859Z,99273.95
2023-01-13T06:43:28.995Z,99273.57
2023-01-13T06:45:56.951Z,99279.28
2023-01-13T06:48:28.022Z,99275.88
2023-01-13T06:50:55.537Z,99280.59
2023-01-13T06:53:22.614Z,99278.56
2023-01-13T06:55:49.768Z,99275.19
2023-01-13T06:58:17.348Z,99275.41
2023-01-13T07:00:44.643Z,99275.80
2023-01-13T07:03:14.645Z,99275.48
2023-01-13T07:05:43.387Z,99272.73
2023-01-13T07:08:11.255Z,99274.96
2023-01-13T07:10:38.789Z,99283.38
2023-01-13T07:13:25.469Z,99280.06
2023-01-13T07:15:57.220Z,99286.67
2023-01-13T07:18:25.554Z,99281.22
2023-01-13T07:20:57.242Z,99283.80
2023-01-13T07:23:25.519Z,99288.27
2023-01-13T07:25:55.403Z,99290.48
2023-01-13T07:28:22.966Z,99289.17
2023-01-13T07:30:50.095Z,99289.11
2023-01-13T07:33:18.712Z,99295.77
2023-01-13T07:35:47.331Z,99295.66
2023-01-13T07:38:15.484Z,99297.35
2023-01-13T07:40:42.850Z,99298.86
2023-01-13T07:43:31.965Z,99296.51
2023-01-13T07:46:00.090Z,99298.61
2023-01-13T07:48:28.227Z,99301.59
2023-01-13T07:50:56.162Z,99301.42
2023-01-13T07:53:25.411Z,99303.98
2023-01-13T07:55:57.127Z,99302.84
2023-01-13T07:58:25.712Z,99298.96
2023-01-13T08:00:53.316Z,99303.27
2023-01-13T08:03:20.862Z,99307.29
2023-01-13T08:05:48.579Z,99307.06
2023-01-13T08:08:16.162Z,99311.09
2023-01-13T08:10:43.461Z,99314.65
2023-01-13T08:13:20.272Z,99310.79
2023-01-13T08:15:51.833Z,99315.70
2023-01-13T08:18:22.255Z,99316.39
2023-01-13T08:20:52.585Z,99319.80
2023-01-13T08:23:21.486Z,99317.75
2023-01-13T08:25:49.405Z,99322.75
2023-01-13T08:28:17.242Z,99325.56
2023-01-13T08:30:44.589Z,99324.68
2023-01-13T08:33:13.093Z,99330.48
2023-01-13T08:35:41.586Z,99327.23
2023-01-13T08:38:09.356Z,99326.73
2023-01-13T08:40:37.538Z,99328.17
2023-01-13T08:43:04.679Z,99328.04
2023-01-13T08:45:32.085Z,99325.82
2023-01-13T08:47:59.309Z,99328.62
2023-01-13T08:50:26.590Z,99335.75
2023-01-13T08:52:53.754Z,99338.83
2023-01-13T08:55:21.022Z,99338.44
2023-01-13T08:57:48.239Z,99342.87
2023-01-13T09:00:17.350Z,99344.63
2023-01-13T09:02:44.681Z,99347.05
2023-01-13T09:05:11.982Z,99349.95
2023-01-13T09:07:39.695Z,99351.39
2023-01-13T09:10:08.277Z,99353.03
2023-01-13T09:13:14.368Z,99357.36
2023-01-13T09:15:45.109Z,99356.27
2023-01-13T09:18:12.991Z,99350.98
2023-01-13T09:20:40.659Z,99348.61
2023-01-13T09:23:10.612Z,99347.55
2023-01-13T09:25:38.876Z,99344.20
2023-01-13T09:28:08.472Z,99345.31
2023-01-13T09:30:37.763Z,99338.02
2023-01-13T09:33:24.176Z,99343.38
2023-01-13T09:35:51.315Z,99341.35
2023-01-13T09:38:18.518Z,99339.31
2023-01-13T09:40:49.067Z,99342.81
2023-01-13T09:43:54.692Z,99341.51
2023-01-13T09:46:44.101Z,99337.58
2023-01-13T09:49:22.258Z,99337.86
2023-01-13T09:52:04.769Z,99338.23
2023-01-13T09:54:41.905Z,99339.46
2023-01-13T09:57:17.166Z,99337.65
2023-01-13T09:59:45.180Z,99340.36
2023-01-13T10:02:31.229Z,99332.13
2023-01-13T10:05:06.303Z,99325.16
2023-01-13T10:07:37.670Z,99323.12
2023-01-13T10:10:10.137Z,99322.88
2023-01-13T10:12:55.872Z,99324.35
2023-01-13T10:15:26.381Z,99322.52
2023-01-13T10:17:58.952Z,99321.85
2023-01-13T10:20:31.867Z,99324.08
2023-01-13T10:23:23.187Z,99320.95
2023-01-13T10:26:14.342Z,99317.23
2023-01-13T10:28:41.703Z,99321.47
2023-01-13T10:31:14.927Z,99319.39
2023-01-13T10:33:42.133Z,99319.84
2023-01-13T10:36:12.471Z,99321.40
2023-01-13T10:38:45.565Z,99319.67
2023-01-13T10:41:15.552Z,99317.45
2023-01-13T10:43:58.201Z,99320.98
2023-01-13T10:46:25.725Z,99316.36
2023-01-13T10:48:55.867Z,99312.15
2023-01-13T10:51:29.357Z,99307.30
2023-01-13T10:53:58.833Z,99305.12
2023-01-13T10:56:29.996Z,99301.42
2023-01-13T10:59:13.338Z,99305.85
2023-01-13T11:01:44.118Z,99309.60
2023-01-13T11:04:33.115Z,99309.20
2023-01-13T11:07:01.151Z,99309.34
2023-01-13T11:09:31.118Z,99311.29
2023-01-13T11:11:59.578Z,99308.12
2023-01-13T11:14:44.059Z,99311.64
2023-01-13T11:18:00.635Z,99300.30
2023-01-13T11:20:37.111Z,99300.73
2023-01-13T11:23:22.991Z,99301.98
2023-01-13T11:25:55.089Z,99309.71
2023-01-13T11:28:43.641Z,99307.20
2023-01-13T11:31:24.682Z,99306.10
2023-01-13T11:34:00.310Z,99301.73
2023-01-13T11:36:47.668Z,99307.77
2023-01-13T11:39:27.114Z,99305.14
2023-01-13T11:42:18.679Z,99307.86
2023-01-13T11:44:58.986Z,99308.01
2023-01-13T11:47:27.318Z,99307.01
2023-01-13T11:49:54.923Z,99304.95
2023-01-13T11:52:34.343Z,99305.37
2023-01-13T11:55:17.085Z,99302.52
2023-01-13T11:58:17.564Z,99300.76
2023-01-13T12:01:08.892Z,99299.31
2023-01-13T12:03:59.324Z,99302.23
2023-01-13T12:06:37.999Z,99297.98
2023-01-13T12:09:28.617Z,99293.51
2023-01-13T12:12:33.049Z,99295.27
2023-01-13T12:15:18.581Z,99293.18
2023-01-13T12:18:07.286Z,99290.27
2023-01-13T12:20:49.798Z,99286.06
2023-01-13T12:23:29.259Z,99286.48
2023-01-13T12:26:05.653Z,99286.44
2023-01-13T12:28:43.496Z,99283.80
2023-01-13T12:31:11.353Z,99285.02
2023-01-13T12:33:54.060Z,99282.33
2023-01-13T12:36:42.861Z,99279.21
2023-01-13T12:39:28.428Z,99283.48
2023-01-13T12:42:17.183Z,99292.06
2023-01-13T12:45:12.591Z,99294.02
2023-01-13T12:47:44.488Z,99292.48
2023-01-13T12:50:24.899Z,99291.77
2023-01-13T12:52:52.374Z,99293.19
2023-01-13T12:55:21.761Z,99293.68
2023-01-13T12:58:08.262Z,99292.61
2023-01-13T13:00:41.826Z,99290.59
2023-01-13T13:03:15.803Z,99290.39
2023-01-13T13:05:47.947Z,99293.29
2023-01-13T13:08:24.909Z,99293.70
2023-01-13T13:11:32.468Z,99298.21
2023-01-13T13:14:06.126Z,99297.09
2023-01-13T13:16:46.525Z,99296.41
2023-01-13T13:19:23.183Z,99300.02
2023-01-13T13:22:12.236Z,99302.95
2023-01-13T13:24:48.714Z,99307.75
2023-01-13T13:27:44.359Z,99304.34
2023-01-13T13:30:18.284Z,99303.26
2023-01-13T13:32:45.395Z,99309.29
2023-01-13T13:35:18.456Z,99313.33
2023-01-13T13:38:17.864Z,99312.33
2023-01-13T13:41:06.010Z,99312.07
2023-01-13T13:43:59.020Z,99312.81
2023-01-13T13:46:48.969Z,99312.75
2023-01-13T13:49:22.573Z,99315.42
2023-01-13T13:52:11.068Z,99313.76
2023-01-13T13:54:42.889Z,99313.58
2023-01-13T13:57:18.588Z,99315.11
2023-01-13T13:59:46.000Z,99317.90
2023-01-13T14:02:20.696Z,99322.48
2023-01-13T14:04:47.969Z,99329.11
2023-01-13T14:07:21.403Z,99326.58
2023-01-13T14:09:54.431Z,99325.55
2023-01-13T14:12:24.559Z,99326.94
2023-01-13T14:14:54.378Z,99324.85
2023-01-13T14:17:28.987Z,99324.17
2023-01-13T14:20:02.986Z,99317.91
2023-01-13T14:22:30.213Z,99319.98
2023-01-13T14:24:58.235Z,99321.35
2023-01-13T14:27:27.909Z,99321.83
2023-01-13T14:30:02.140Z,99329.84
2023-01-13T14:32:35.115Z,99332.93
2023-01-13T14:35:06.208Z,99336.80
2023-01-13T14:37:40.469Z,99339.60
2023-01-13T14:40:33.605Z,99337.01
2023-01-13T14:43:02.462Z,99337.06
2023-01-13T14:45:33.179Z,99339.61
2023-01-13T14:48:01.776Z,99338.20
2023-01-13T14:50:32.868Z,99339.27
2023-01-13T14:53:01.702Z,99336.30
2023-01-13T14:55:36.552Z,99333.52
2023-01-13T14:58:22.198Z,99333.77
2023-01-13T15:00:51.066Z,99339.86
2023-01-13T15:03:21.103Z,99330.10
2023-01-13T15:05:50.841Z,99330.87
2023-01-13T15:08:30.587Z,99331.21
2023-01-13T15:11:00.421Z,99333.45
2023-01-13T15:13:47.614Z,99336.89
2023-01-13T15:16:26.145Z,99338.40
2023-01-13T15:18:55.322Z,99342.15
2023-01-13T15:21:23.409Z,99343.49
2023-01-13T15:23:51.048Z,99346.63
2023-01-13T15:26:19.905Z,99348.13
2023-01-13T15:28:47.541Z,99346.48
2023-01-13T15:31:15.242Z,99345.16
2023-01-13T15:33:43.361Z,99347.13
2023-01-13T15:36:23.625Z,99345.50
2023-01-13T15:38:51.028Z,99343.14
2023-01-13T15:41:38.249Z,99346.52
2023-01-13T15:44:24.390Z,99351.56
2023-01-13T15:46:52.463Z,99349.38
2023-01-13T15:49:41.424Z,99350.30
2023-01-13T15:52:21.613Z,99353.44
2023-01-13T15:54:49.868Z,99359.02
2023-01-13T15:57:20.272Z,99362.42
2023-01-13T15:59:47.439Z,99365.94
2023-01-13T16:02:18.502Z,99366.64
2023-01-13T16:04:46.118Z,99366.20
2023-01-13T16:07:16.756Z,99365.57
2023-01-13T16:09:45.411Z,99367.64
2023-01-13T16:12:13.819Z,99370.57
2023-01-13T16:14:41.006Z,99376.77
2023-01-13T16:17:21.103Z,99377.92
2023-01-13T16:19:48.514Z,99375.88
2023-01-13T16:22:16.605Z,99377.45
2023-01-13T16:24:44.371Z,99380.58
2023-01-13T16:27:19.013Z,99382.27
2023-01-13T16:29:47.366Z,99385.52
2023-01-13T16:32:14.886Z,99380.11
2023-01-13T16:34:42.991Z,99377.82
2023-01-13T16:37:21.751Z,99376.06
2023-01-13T16:39:48.887Z,99371.36
2023-01-13T16:42:16.681Z,99369.77
2023-01-13T16:44:44.296Z,99374.06
2023-01-13T16:47:17.217Z,99364.40
2023-01-13T16:49:45.419Z,99360.05
2023-01-13T16:52:12.707Z,99360.22
2023-01-13T16:54:39.963Z,99361.88
2023-01-13T16:57:07.954Z,99364.09
2023-01-13T16:59:35.164Z,99364.09
2023-01-13T17:02:02.379Z,99363.30
2023-01-13T17:04:29.604Z,99362.20
2023-01-13T17:07:06.199Z,99362.18
2023-01-13T17:09:33.278Z,99362.05
2023-01-13T17:12:00.568Z,99360.01
2023-01-13T17:14:27.746Z,99365.14
2023-01-13T17:16:58.225Z,99368.64
2023-01-13T17:19:25.874Z,99371.94
2023-01-13T17:21:53.207Z,99376.99
2023-01-13T17:24:20.903Z,99375.64
2023-01-13T17:26:50.619Z,99379.48
2023-01-13T17:29:23.118Z,99380.48
2023-01-13T17:31:51.205Z,99376.75
2023-01-13T17:34:19.755Z,99376.67
2023-01-13T17:36:47.494Z,99377.07
2023-01-13T17:39:23.781Z,99376.85
2023-01-13T17:41:52.294Z,99376.96
2023-01-13T17:44:21.581Z,99385.73
2023-01-13T17:46:49.073Z,99395.38
2023-01-13T17:49:21.409Z,99395.38
2023-01-13T17:51:48.668Z,99395.85
2023-01-13T17:54:16.186Z,99394.83
2023-01-13T17:56:43.893Z,99398.38
2023-01-13T17:59:12.696Z,99404.34
2023-01-13T18:01:40.993Z,99398.33
2023-01-13T18:04:16.712Z,99404.70
2023-01-13T18:06:43.835Z,99403.58
2023-01-13T18:09:11.426Z,99410.30
2023-01-13T18:11:38.926Z,99413.83
2023-01-13T18:14:06.387Z,99409.93
2023-01-13T18:16:33.746Z,99410.30
2023-01-13T18:19:20.013Z,99414.66
2023-01-13T18:22:06.794Z,99417.47
2023-01-13T18:25:03.343Z,99418.30
2023-01-13T18:27:35.836Z,99423.88
2023-01-13T18:30:04.002Z,99425.09
2023-01-13T18:32:33.592Z,99429.16
2023-01-13T18:35:06.638Z,99429.93
2023-01-13T18:37:42.318Z,99433.92
2023-01-13T18:40:12.648Z,99435.67
2023-01-13T18:42:52.311Z,99430.41
2023-01-13T18:45:22.046Z,99432.65
2023-01-13T18:47:49.321Z,99432.14
2023-01-13T18:50:17.527Z,99435.39
2023-01-13T18:52:44.974Z,99435.69
2023-01-13T18:55:12.153Z,99438.04
2023-01-13T18:57:40.278Z,99438.08
2023-01-13T19:00:10.386Z,99439.58
2023-01-13T19:02:37.850Z,99437.65
2023-01-13T19:05:05.926Z,99441.98
2023-01-13T19:07:35.647Z,99446.53
2023-01-13T19:10:04.592Z,99455.02
2023-01-13T19:12:33.846Z,99457.42
2023-01-13T19:15:02.317Z,99454.64
2023-01-13T19:17:34.999Z,99457.11
2023-01-13T19:20:02.886Z,99459.16
2023-01-13T19:22:32.938Z,99458.23
2023-01-13T19:25:01.957Z,99464.06
2023-01-13T19:27:29.410Z,99462.27
2023-01-13T19:30:00.722Z,99461.48
2023-01-13T19:32:30.876Z,99459.73
2023-01-13T19:34:59.837Z,99462.11
2023-01-13T19:37:33.772Z,99462.89
2023-01-13T19:40:01.351Z,99463.86
2023-01-13T19:42:47.153Z,99468.61
2023-01-13T19:45:27.624Z,99482.80
2023-01-13T19:48:01.793Z,99486.81
2023-01-13T19:50:29.299Z,99488.17
2023-01-13T19:52:56.491Z,99489.63
2023-01-13T19:55:24.515Z,99494.31
2023-01-13T19:57:51.694Z,99495.59
2023-01-13T20:00:20.993Z,99498.62
2023-01-13T20:02:49.922Z,99502.48
2023-01-13T20:05:21.450Z,99503.39
2023-01-13T20:07:50.761Z,99505.75
2023-01-13T20:10:20.032Z,99513.98
2023-01-13T20:12:47.293Z,99518.13
2023-01-13T20:15:14.911Z,99519.11
2023-01-13T20:17:42.123Z,99521.27
2023-01-13T20:20:10.959Z,99514.16
2023-01-13T20:22:39.525Z,99512.45
2023-01-13T20:25:07.532Z,99515.59
2023-01-13T20:27:35.596Z,99517.02
2023-01-13T20:30:03.036Z,99526.02
2023-01-13T20:32:30.255Z,99526.79
2023-01-13T20:34:57.459Z,99529.05
2023-01-13T20:37:24.557Z,99535.54
2023-01-13T20:39:51.796Z,99537.44
2023-01-13T20:42:32.289Z,99536.85
2023-01-13T20:45:01.215Z,99536.45
2023-01-13T20:47:29.923Z,99539.89
2023-01-13T20:49:57.156Z,99538.43
2023-01-13T20:52:24.904Z,99539.02
2023-01-13T20:54:52.112Z,99533.45
2023-01-13T20:57:19.504Z,99533.88
2023-01-13T20:59:46.757Z,99539.36
2023-01-13T21:02:15.745Z,99535.91
2023-01-13T21:04:42.974Z,99538.59
2023-01-13T21:07:10.622Z,99538.37
2023-01-13T21:09:38.101Z,99539.33
2023-01-13T21:12:25.394Z,99538.79
2023-01-13T21:15:11.385Z,99547.45
2023-01-13T21:17:57.100Z,99547.30
2023-01-13T21:20:24.276Z,99549.36
2023-01-13T21:22:51.441Z,99547.98
2023-01-13T21:25:19.578Z,99544.83
2023-01-13T21:27:46.776Z,99548.26
2023-01-13T21:30:15.923Z,99553.56
2023-01-13T21:32:44.243Z,99553.04
2023-01-13T21:35:13.451Z,99559.56
2023-01-13T21:37:42.583Z,99560.41
2023-01-13T21:40:13.263Z,99558.17
2023-01-13T21:42:59.068Z,99558.58
2023-01-13T21:45:45.038Z,99556.58
2023-01-13T21:48:12.359Z,99558.98
2023-01-13T21:50:39.657Z,99561.77
2023-01-13T21:53:08.178Z,99562.20
2023-01-13T21:55:36.990Z,99568.75
2023-01-13T21:58:12.950Z,99564.59
2023-01-13T22:00:44.863Z,99565.27
2023-01-13T22:03:14.051Z,99570.23
2023-01-13T22:05:41.719Z,99562.92
2023-01-13T22:08:12.589Z,99565.56
2023-01-13T22:10:57.578Z,99568.15
2023-01-13T22:13:47.943Z,99570.17
2023-01-13T22:16:15.996Z,99579.02
2023-01-13T22:18:43.322Z,99586.52
2023-01-13T22:21:11.190Z,99583.02
2023-01-13T22:23:38.442Z,99584.07
2023-01-13T22:26:07.837Z,99587.02
2023-01-13T22:28:40.885Z,99593.69
2023-01-13T22:31:14.111Z,99595.77
2023-01-13T22:33:42.177Z,99596.83
2023-01-13T22:36:10.377Z,99601.20
2023-01-13T22:38:37.607Z,99601.02
2023-01-13T22:41:07.802Z,99606.02
2023-01-13T22:43:36.083Z,99602.98
2023-01-13T22:46:06.348Z,99605.33
2023-01-13T22:48:34.455Z,99604.65
2023-01-13T22:51:08.832Z,99607.83
2023-01-13T22:53:36.993Z,99609.20
2023-01-13T22:56:05.109Z,99607.48
2023-01-13T22:58:32.274Z,99612.52
2023-01-13T23:01:14.108Z,99608.86
2023-01-13T23:03:42.084Z,99603.63
2023-01-13T23:06:09.412Z,99600.80
2023-01-13T23:08:36.824Z,99602.60
2023-01-13T23:11:06.123Z,99602.50
2023-01-13T23:13:33.962Z,99601.13
2023-01-13T23:16:06.362Z,99602.55
2023-01-13T23:18:34.284Z,99603.34
2023-01-13T23:21:10.605Z,99602.56
2023-01-13T23:23:38.022Z,99600.98
2023-01-13T23:26:06.726Z,99595.77
2023-01-13T23:28:35.272Z,99599.59
2023-01-13T23:31:10.714Z,99598.14
2023-01-13T23:33:38.049Z,99594.13
2023-01-13T23:36:06.910Z,99596.60
2023-01-13T23:38:34.501Z,99599.51
2023-01-13T23:41:06.265Z,99600.06
2023-01-13T23:43:33.511Z,99606.92
2023-01-13T23:46:11.532Z,99604.09
2023-01-13T23:48:39.547Z,99602.23
2023-01-13T23:51:10.693Z,99601.30
2023-01-13T23:53:40.687Z,99599.73
2023-01-13T23:56:11.638Z,99602.71
2023-01-13T23:58:38.721Z,99605.70
